Time;durP1;ratioP1;P1;durP2;ratioP2;P2;SDS_P1;SDS_P2;PMS_P1;PMS_P2;Temp;Humidity;BMP_temperature;BMP_pressure;BME280_temperature;BME280_humidity;BME280_pressure;Samples;Min_cycle;Max_cycle;Signal;HPM_P1;HPM_P2
2024/04/22 00:01:56;;;;;;;5.30;1.90;;;0.70;99.90;;;;;;5273261;27;20287;-60
2024/04/22 00:04:22;;;;;;;2.47;2.00;;;0.60;99.90;;;;;;5274069;27;20683;-58
2024/04/22 00:06:47;;;;;;;3.33;2.00;;;0.60;99.90;;;;;;5273483;27;20263;-61
2024/04/22 00:09:13;;;;;;;3.37;2.63;;;0.60;99.90;;;;;;5273971;27;20303;-59
2024/04/22 00:11:39;;;;;;;2.23;1.77;;;0.60;99.90;;;;;;5272444;27;20295;-61
2024/04/22 00:14:05;;;;;;;3.80;2.07;;;0.50;99.90;;;;;;5273921;27;20300;-61
2024/04/22 00:16:31;;;;;;;4.20;2.70;;;0.50;99.90;;;;;;5273504;27;21070;-56
2024/04/22 00:18:56;;;;;;;2.73;2.53;;;0.50;99.90;;;;;;5273253;27;20476;-59
2024/04/22 00:21:22;;;;;;;5.20;2.43;;;0.50;99.90;;;;;;5273544;27;20327;-54
2024/04/22 00:23:48;;;;;;;4.53;2.50;;;0.50;99.90;;;;;;5243562;27;20276;-56
2024/04/22 00:26:13;;;;;;;4.03;2.37;;;0.40;99.90;;;;;;5273346;27;20236;-55
2024/04/22 00:28:39;;;;;;;5.00;2.63;;;0.40;99.90;;;;;;5272687;27;20241;-54
2024/04/22 00:31:07;;;;;;;3.43;2.07;;;0.40;99.90;;;;;;5273337;27;20343;-54
2024/04/22 00:33:32;;;;;;;2.70;1.93;;;0.40;99.90;;;;;;5273629;27;20303;-53
2024/04/22 00:35:59;;;;;;;4.27;3.67;;;0.40;99.90;;;;;;5273361;27;20468;-54
2024/04/22 00:38:25;;;;;;;2.30;2.10;;;0.30;99.90;;;;;;5273753;27;21040;-53
2024/04/22 00:40:51;;;;;;;4.93;2.97;;;0.30;99.90;;;;;;5272867;27;20484;-59
2024/04/22 00:43:16;;;;;;;12.40;3.27;;;0.30;99.90;;;;;;5273209;27;20464;-55
2024/04/22 00:45:44;;;;;;;3.90;2.80;;;0.20;99.90;;;;;;5273117;27;20342;-55
2024/04/22 00:48:10;;;;;;;3.83;3.03;;;0.20;99.90;;;;;;5272773;27;20244;-55
2024/04/22 00:50:36;;;;;;;3.13;2.83;;;0.20;99.90;;;;;;5272947;27;20484;-57
2024/04/22 00:53:03;;;;;;;2.50;2.10;;;0.20;99.90;;;;;;5273142;27;20475;-55
2024/04/22 00:55:29;;;;;;;3.30;2.40;;;0.20;99.90;;;;;;5273207;27;20228;-55
2024/04/22 00:57:58;;;;;;;2.57;2.20;;;0.20;99.90;;;;;;5270134;27;20810;-55
2024/04/22 01:00:25;;;;;;;2.87;2.13;;;0.20;99.90;;;;;;5272547;27;20468;-55
2024/04/22 01:02:52;;;;;;;3.63;2.47;;;0.20;99.90;;;;;;5272827;27;20575;-55
2024/04/22 01:05:18;;;;;;;3.57;1.97;;;0.10;99.90;;;;;;5272430;27;20755;-56
2024/04/22 01:07:44;;;;;;;4.13;2.83;;;0.00;99.90;;;;;;5273175;27;20560;-61
2024/04/22 01:10:09;;;;;;;6.30;2.60;;;0.00;99.90;;;;;;5272402;27;20723;-61
2024/04/22 01:12:35;;;;;;;4.73;4.03;;;0.00;99.90;;;;;;5272804;27;20512;-61
2024/04/22 01:15:03;;;;;;;2.40;2.20;;;0.10;99.90;;;;;;5269947;27;20279;-61
2024/04/22 01:17:44;;;;;;;4.33;2.53;;;0.00;99.90;;;;;;5272686;27;20809;-62
2024/04/22 01:20:11;;;;;;;6.13;3.40;;;0.00;99.90;;;;;;5272385;27;20468;-60
2024/04/22 01:22:37;;;;;;;6.30;2.53;;;0.00;99.90;;;;;;5272648;27;20528;-61
2024/04/22 01:25:04;;;;;;;2.60;2.40;;;0.00;99.90;;;;;;5272362;27;20471;-61
2024/04/22 01:27:31;;;;;;;3.40;2.77;;;0.00;99.90;;;;;;5272263;27;21077;-60
2024/04/22 01:29:58;;;;;;;3.10;2.73;;;0.00;99.90;;;;;;5269789;27;21030;-62
2024/04/22 01:32:24;;;;;;;4.80;2.63;;;0.00;99.90;;;;;;5272588;27;20940;-63
2024/04/22 01:34:50;;;;;;;2.80;2.50;;;0.00;99.90;;;;;;5272796;27;20553;-59
2024/04/22 01:37:16;;;;;;;9.07;2.97;;;0.00;99.90;;;;;;5270074;27;20232;-62
2024/04/22 01:39:42;;;;;;;2.97;2.77;;;0.00;99.90;;;;;;5272696;27;20946;-62
2024/04/22 01:42:08;;;;;;;4.13;2.90;;;-0.10;99.90;;;;;;5271871;27;20711;-60
2024/04/22 01:44:33;;;;;;;3.57;3.27;;;-0.10;99.90;;;;;;5272317;27;20520;-61
2024/04/22 01:46:59;;;;;;;3.90;3.17;;;-0.10;99.90;;;;;;5264855;27;20830;-60
2024/04/22 01:49:25;;;;;;;3.40;2.87;;;-0.10;99.90;;;;;;5272133;27;20938;-61
2024/04/22 01:51:50;;;;;;;4.83;3.30;;;-0.10;99.90;;;;;;5271825;27;20329;-60
2024/04/22 01:54:16;;;;;;;6.23;3.27;;;-0.10;99.90;;;;;;5272283;27;20271;-59
2024/04/22 01:56:41;;;;;;;5.27;3.57;;;-0.10;99.90;;;;;;5272271;27;20327;-60
2024/04/22 01:59:07;;;;;;;4.23;3.00;;;-0.20;99.90;;;;;;5272128;27;20275;-56
2024/04/22 02:01:33;;;;;;;5.00;2.87;;;-0.20;99.90;;;;;;5269446;27;20826;-60
2024/04/22 02:03:58;;;;;;;4.67;3.93;;;-0.20;99.90;;;;;;5272130;27;20225;-59
2024/04/22 02:06:24;;;;;;;4.30;3.00;;;-0.20;99.90;;;;;;5272471;27;20619;-59
2024/04/22 02:08:49;;;;;;;4.77;2.93;;;-0.20;99.90;;;;;;5272486;27;20317;-62
2024/04/22 02:11:15;;;;;;;3.17;2.87;;;-0.20;99.90;;;;;;5271986;27;20338;-61
2024/04/22 02:13:40;;;;;;;8.20;3.20;;;-0.20;99.90;;;;;;5272089;27;20284;-59
2024/04/22 02:16:06;;;;;;;4.03;3.20;;;-0.20;99.90;;;;;;5271668;27;20221;-61
2024/04/22 02:18:32;;;;;;;3.63;2.80;;;-0.20;99.90;;;;;;5272158;27;20735;-59
2024/04/22 02:20:58;;;;;;;3.73;2.60;;;-0.30;99.90;;;;;;5274767;27;20282;-61
2024/04/22 02:23:23;;;;;;;5.33;3.23;;;-0.30;99.90;;;;;;5275205;27;20958;-60
2024/04/22 02:25:49;;;;;;;3.13;2.83;;;-0.30;99.90;;;;;;5275094;27;20232;-59
2024/04/22 02:28:15;;;;;;;5.90;3.67;;;-0.30;99.90;;;;;;5274770;27;20438;-59
2024/04/22 02:30:40;;;;;;;4.00;2.70;;;-0.30;99.90;;;;;;5275034;27;20267;-60
2024/04/22 02:33:09;;;;;;;2.83;2.63;;;-0.30;99.90;;;;;;5271821;27;20236;-60
2024/04/22 02:35:35;;;;;;;3.50;2.70;;;-0.30;99.90;;;;;;5275046;27;20368;-61
2024/04/22 02:38:01;;;;;;;3.40;2.90;;;-0.30;99.90;;;;;;5274651;27;20679;-61
2024/04/22 02:40:27;;;;;;;3.70;2.60;;;-0.40;99.90;;;;;;5274878;27;20468;-61
2024/04/22 02:42:53;;;;;;;4.83;2.97;;;-0.40;99.90;;;;;;5265664;27;20656;-56
2024/04/22 02:45:23;;;;;;;7.57;3.83;;;-0.40;99.90;;;;;;5274708;27;20548;-61
2024/04/22 02:47:49;;;;;;;3.70;2.60;;;-0.30;99.90;;;;;;5274621;27;20631;-59
2024/04/22 02:50:15;;;;;;;3.20;2.90;;;-0.30;99.90;;;;;;5274329;27;20467;-61
2024/04/22 02:52:41;;;;;;;4.63;3.23;;;-0.30;99.90;;;;;;5274192;27;20228;-60
2024/04/22 02:55:06;;;;;;;4.00;3.23;;;-0.40;99.90;;;;;;5274508;27;20296;-61
2024/04/22 02:57:32;;;;;;;9.60;2.80;;;-0.30;99.90;;;;;;5274701;27;20519;-61
2024/04/22 02:59:58;;;;;;;4.17;3.00;;;-0.30;99.90;;;;;;5271566;27;20232;-61
2024/04/22 03:02:23;;;;;;;7.80;2.60;;;-0.30;99.90;;;;;;5274035;27;20629;-61
2024/04/22 03:04:49;;;;;;;4.00;3.47;;;-0.20;99.90;;;;;;5274595;27;20330;-61
2024/04/22 03:07:15;;;;;;;3.77;3.33;;;-0.20;99.90;;;;;;5274348;27;20276;-61
2024/04/22 03:09:43;;;;;;;5.63;3.50;;;-0.20;99.90;;;;;;5274142;27;20543;-61
2024/04/22 03:12:12;;;;;;;4.20;2.90;;;-0.20;99.90;;;;;;5274008;27;20262;-60
2024/04/22 03:14:38;;;;;;;7.10;4.50;;;-0.20;99.90;;;;;;5272607;27;20916;-60
2024/04/22 03:17:04;;;;;;;6.43;3.23;;;-0.20;99.90;;;;;;5273831;27;20884;-60
2024/04/22 03:19:30;;;;;;;3.20;2.77;;;-0.20;99.90;;;;;;5274059;27;20479;-57
2024/04/22 03:21:55;;;;;;;3.27;2.80;;;-0.20;99.90;;;;;;5274317;27;21015;-59
2024/04/22 03:24:21;;;;;;;9.67;5.50;;;-0.30;99.90;;;;;;5274617;27;20225;-60
2024/04/22 03:26:47;;;;;;;5.67;3.20;;;-0.30;99.90;;;;;;5273970;27;20277;-60
2024/04/22 03:29:13;;;;;;;3.57;3.00;;;-0.30;99.90;;;;;;5273731;27;20649;-60
2024/04/22 03:31:38;;;;;;;4.70;2.73;;;-0.30;99.90;;;;;;5271737;27;20288;-57
2024/04/22 03:34:04;;;;;;;2.73;2.50;;;-0.30;99.90;;;;;;5270178;27;20794;-61
2024/04/22 03:36:30;;;;;;;4.00;2.83;;;-0.30;99.90;;;;;;5271509;27;20229;-61
2024/04/22 03:38:56;;;;;;;4.27;3.13;;;-0.30;99.90;;;;;;5273026;27;20233;-61
2024/04/22 03:41:22;;;;;;;5.03;3.10;;;-0.30;99.90;;;;;;5273760;27;20229;-61
2024/04/22 03:43:47;;;;;;;6.80;3.37;;;-0.30;99.90;;;;;;5273971;27;20914;-61
2024/04/22 03:51:42;;;;;;;5.40;3.30;;;-0.40;99.90;;;;;;5273802;27;20583;-59
2024/04/22 03:54:08;;;;;;;4.90;2.60;;;-0.40;99.90;;;;;;5271167;27;20467;-61
2024/04/22 03:56:33;;;;;;;4.13;3.30;;;-0.40;99.90;;;;;;5273824;27;20224;-60
2024/04/22 03:58:59;;;;;;;6.53;4.03;;;-0.40;99.90;;;;;;5273477;27;20708;-59
2024/04/22 04:01:24;;;;;;;4.20;3.10;;;-0.40;99.90;;;;;;5273693;27;20229;-61
2024/04/22 04:03:50;;;;;;;4.03;3.23;;;-0.40;99.90;;;;;;5273982;27;20236;-61
2024/04/22 04:06:16;;;;;;;4.40;3.93;;;-0.30;99.90;;;;;;5270618;27;20303;-60
2024/04/22 04:08:42;;;;;;;4.27;3.00;;;-0.30;99.90;;;;;;5273570;27;21195;-61
2024/04/22 04:11:15;;;;;;;3.73;3.10;;;-0.30;99.90;;;;;;5273599;27;20272;-61
2024/04/22 04:13:44;;;;;;;7.33;3.43;;;-0.20;99.90;;;;;;5273934;27;20738;-59
2024/04/22 04:16:10;;;;;;;6.80;6.00;;;-0.20;99.90;;;;;;5272981;27;21208;-61
2024/04/22 04:18:40;;;;;;;7.30;4.00;;;-0.20;99.90;;;;;;5273924;27;20456;-61
2024/04/22 04:21:05;;;;;;;7.90;4.00;;;-0.30;99.90;;;;;;5273749;27;20238;-60
2024/04/22 04:23:32;;;;;;;4.23;3.77;;;-0.30;99.90;;;;;;5271975;27;21025;-61
2024/04/22 04:25:58;;;;;;;4.20;3.60;;;-0.30;99.90;;;;;;5273543;27;20616;-56
2024/04/22 04:28:24;;;;;;;4.87;3.67;;;-0.20;99.90;;;;;;5270815;27;20460;-59
2024/04/22 04:30:54;;;;;;;4.50;4.20;;;-0.20;99.90;;;;;;5273105;27;20539;-61
2024/04/22 04:33:19;;;;;;;3.97;2.50;;;-0.20;99.90;;;;;;5270881;27;21115;-59
2024/04/22 04:35:45;;;;;;;10.37;3.30;;;-0.10;99.90;;;;;;5273083;27;20456;-62
2024/04/22 04:38:10;;;;;;;3.10;2.77;;;-0.10;99.90;;;;;;5272070;27;20656;-62
2024/04/22 04:40:36;;;;;;;10.93;3.57;;;-0.10;99.90;;;;;;5272050;27;20415;-61
2024/04/22 04:43:01;;;;;;;4.03;3.13;;;0.00;99.90;;;;;;5272963;27;20221;-60
2024/04/22 04:45:27;;;;;;;4.93;3.00;;;0.00;99.90;;;;;;5273051;27;20220;-61
2024/04/22 04:47:54;;;;;;;3.77;3.10;;;0.00;99.90;;;;;;5271033;27;20244;-61
2024/04/22 04:50:20;;;;;;;3.17;2.90;;;0.10;99.90;;;;;;5272192;27;20279;-58
2024/04/22 04:52:45;;;;;;;3.63;3.20;;;0.10;99.90;;;;;;5272814;27;20460;-62
2024/04/22 04:55:11;;;;;;;4.70;3.60;;;0.20;99.90;;;;;;5272894;27;20351;-62
2024/04/22 04:57:36;;;;;;;4.83;3.07;;;0.30;99.90;;;;;;5273170;27;20302;-61
2024/04/22 05:00:02;;;;;;;3.90;3.60;;;0.30;99.90;;;;;;5271879;27;20224;-61
2024/04/22 05:02:28;;;;;;;3.47;2.90;;;0.40;99.90;;;;;;5273415;27;20561;-60
2024/04/22 05:04:53;;;;;;;4.57;2.40;;;0.40;99.90;;;;;;5273459;27;20224;-62
2024/04/22 05:07:19;;;;;;;4.13;2.73;;;0.50;99.90;;;;;;5270778;27;20291;-61
2024/04/22 05:09:44;;;;;;;5.00;3.40;;;0.60;99.90;;;;;;5272971;27;20342;-62
2024/04/22 05:12:10;;;;;;;3.27;2.97;;;0.70;99.90;;;;;;5272274;27;20237;-56
2024/04/22 05:14:35;;;;;;;8.90;3.27;;;0.80;99.90;;;;;;5273128;27;20237;-62
2024/04/22 05:17:01;;;;;;;4.90;3.10;;;0.90;99.90;;;;;;5272218;27;20279;-62
2024/04/22 05:19:27;;;;;;;3.17;2.83;;;1.00;99.90;;;;;;5270162;27;20342;-61
2024/04/22 05:21:52;;;;;;;2.87;2.67;;;1.10;99.90;;;;;;5271455;27;20228;-61
2024/04/22 05:24:18;;;;;;;4.00;2.97;;;1.20;99.90;;;;;;5272352;27;20356;-62
2024/04/22 05:26:44;;;;;;;4.00;3.37;;;1.40;99.90;;;;;;5272964;27;20228;-61
2024/04/22 05:29:10;;;;;;;4.97;3.10;;;1.50;99.90;;;;;;5272339;27;20516;-62
2024/04/22 05:31:35;;;;;;;3.40;3.10;;;1.60;99.90;;;;;;5271903;27;20515;-61
2024/04/22 05:36:45;;;;;;;2.60;2.40;;;2.40;99.90;;;;;;5259416;27;20274;-57
2024/04/22 05:39:10;;;;;;;7.70;3.17;;;2.80;99.90;;;;;;5271286;27;21002;-58
2024/04/22 05:41:36;;;;;;;10.93;2.77;;;3.10;99.90;;;;;;5271786;27;20364;-60
2024/04/22 05:44:02;;;;;;;4.70;2.30;;;3.10;99.90;;;;;;5272024;27;20228;-54
2024/04/22 05:46:27;;;;;;;6.93;3.47;;;3.60;99.90;;;;;;5271973;27;20352;-60
2024/04/22 05:48:53;;;;;;;4.10;2.50;;;4.00;99.90;;;;;;5271778;27;20281;-60
2024/04/22 05:51:18;;;;;;;3.10;2.23;;;4.40;99.90;;;;;;5272078;27;20240;-61
2024/04/22 05:53:44;;;;;;;5.33;3.60;;;4.80;99.90;;;;;;5273288;27;20602;-60
2024/04/22 05:56:10;;;;;;;4.33;2.50;;;4.80;99.90;;;;;;5275164;27;20220;-59
2024/04/22 05:58:35;;;;;;;2.80;2.57;;;5.10;99.90;;;;;;5275438;27;20282;-61
2024/04/22 06:01:01;;;;;;;3.93;2.13;;;5.20;99.90;;;;;;5275716;27;20229;-57
2024/04/22 06:03:27;;;;;;;4.03;2.30;;;6.40;99.90;;;;;;5274799;27;20229;-60
2024/04/22 06:05:52;;;;;;;3.70;2.10;;;6.50;99.90;;;;;;5274825;27;20331;-59
2024/04/22 06:08:18;;;;;;;2.47;2.20;;;6.40;99.90;;;;;;5267931;27;21014;-61
2024/04/22 06:10:43;;;;;;;4.50;2.90;;;6.80;99.90;;;;;;5274352;27;20240;-60
2024/04/22 06:13:09;;;;;;;2.30;2.03;;;7.20;99.90;;;;;;5274267;27;20225;-61
2024/04/22 06:15:35;;;;;;;3.07;2.77;;;6.90;99.90;;;;;;5274871;27;20374;-61
2024/04/22 06:18:00;;;;;;;3.63;2.53;;;6.90;99.00;;;;;;5245003;27;20269;-61
2024/04/22 06:20:26;;;;;;;4.43;2.90;;;7.20;98.40;;;;;;5274239;27;20285;-62
2024/04/22 06:22:51;;;;;;;7.20;2.70;;;6.60;98.80;;;;;;5274822;27;20233;-61
2024/04/22 06:25:17;;;;;;;3.57;2.80;;;6.80;96.60;;;;;;5274728;27;20233;-61
2024/04/22 06:27:42;;;;;;;3.70;2.37;;;7.20;97.00;;;;;;5272290;27;20688;-66
2024/04/22 06:30:08;;;;;;;2.73;2.40;;;6.60;95.80;;;;;;5274197;27;20583;-62
2024/04/22 06:32:35;;;;;;;5.10;3.07;;;6.30;97.40;;;;;;5275100;27;20271;-61
2024/04/22 06:35:04;;;;;;;5.13;2.80;;;7.10;97.00;;;;;;5272553;27;20423;-62
2024/04/22 06:37:30;;;;;;;10.50;2.50;;;7.90;93.40;;;;;;5259977;27;20520;-61
2024/04/22 06:39:56;;;;;;;2.70;1.80;;;8.10;91.70;;;;;;5273877;27;20827;-62
2024/04/22 06:42:21;;;;;;;5.67;2.50;;;8.70;90.60;;;;;;5217449;27;20690;-53
2024/04/22 06:44:48;;;;;;;4.53;2.20;;;9.10;86.90;;;;;;5264721;27;20239;-55
2024/04/22 06:47:14;;;;;;;2.53;2.27;;;8.90;83.00;;;;;;5274183;27;20734;-54
2024/04/22 06:49:40;;;;;;;4.70;2.50;;;8.30;87.30;;;;;;5273936;27;20468;-58
2024/04/22 06:52:08;;;;;;;2.87;2.43;;;9.00;82.90;;;;;;5274392;27;20581;-63
2024/04/22 06:54:34;;;;;;;6.10;2.60;;;8.00;84.80;;;;;;5272708;27;20780;-59
2024/04/22 06:56:59;;;;;;;2.37;2.07;;;8.80;86.70;;;;;;5274461;27;20519;-66
2024/04/22 06:59:25;;;;;;;4.73;1.80;;;8.60;82.30;;;;;;5274336;27;20266;-56
2024/04/22 07:01:51;;;;;;;2.63;1.90;;;9.90;76.50;;;;;;5274697;27;20233;-54
2024/04/22 07:04:16;;;;;;;2.43;1.70;;;10.30;75.60;;;;;;5272987;27;20221;-55
2024/04/22 07:06:42;;;;;;;5.67;2.07;;;9.60;73.10;;;;;;5274872;27;20615;-58
2024/04/22 07:09:13;;;;;;;1.60;1.50;;;9.60;72.00;;;;;;5274352;27;20334;-58
2024/04/22 07:11:39;;;;;;;2.83;2.10;;;8.10;73.40;;;;;;5272480;27;20350;-58
2024/04/22 07:14:05;;;;;;;2.33;1.60;;;8.10;80.50;;;;;;5274711;27;20459;-60
2024/04/22 07:16:32;;;;;;;2.53;1.97;;;8.50;81.50;;;;;;5273912;27;20459;-61
2024/04/22 07:18:57;;;;;;;2.20;1.97;;;9.20;77.20;;;;;;5274120;27;20467;-57
2024/04/22 07:21:23;;;;;;;3.43;1.80;;;8.50;80.30;;;;;;5274215;27;20523;-59
2024/04/22 07:23:49;;;;;;;2.70;1.73;;;9.10;79.80;;;;;;5274488;27;20268;-60
2024/04/22 07:26:14;;;;;;;2.33;2.13;;;9.10;79.00;;;;;;5270113;27;20297;-57
2024/04/22 07:28:40;;;;;;;2.40;2.20;;;8.00;78.30;;;;;;5271921;27;20672;-55
2024/04/22 07:31:06;;;;;;;2.67;1.80;;;7.90;81.10;;;;;;5273876;27;20342;-57
2024/04/22 07:33:32;;;;;;;3.00;2.00;;;7.90;85.40;;;;;;5274408;27;20229;-52
2024/04/22 07:36:24;;;;;;;3.67;1.67;;;7.90;84.20;;;;;;5272148;27;20232;-52
2024/04/22 07:38:52;;;;;;;2.67;2.20;;;8.00;85.10;;;;;;5264050;27;20547;-54
2024/04/22 07:41:18;;;;;;;4.40;2.27;;;8.10;83.40;;;;;;5251888;27;20472;-55
2024/04/22 07:43:44;;;;;;;1.90;1.40;;;7.90;80.10;;;;;;5269553;27;20679;-53
2024/04/22 07:46:09;;;;;;;1.73;1.60;;;8.00;82.10;;;;;;5270142;27;20458;-53
2024/04/22 07:48:35;;;;;;;2.20;1.60;;;7.60;81.20;;;;;;5272532;27;20230;-62
2024/04/22 07:51:04;;;;;;;2.30;1.90;;;8.00;82.10;;;;;;5269215;27;20340;-57
2024/04/22 07:53:30;;;;;;;2.20;1.70;;;8.10;79.10;;;;;;5269896;27;20271;-55
2024/04/22 07:55:55;;;;;;;2.13;1.67;;;8.00;79.00;;;;;;5270111;27;21002;-58
2024/04/22 07:58:21;;;;;;;3.27;1.80;;;7.80;78.00;;;;;;5268550;27;20536;-59
2024/04/22 08:00:47;;;;;;;1.60;1.50;;;8.20;80.10;;;;;;5269344;27;20240;-57
2024/04/22 08:03:13;;;;;;;2.37;2.17;;;8.20;75.60;;;;;;5264859;27;20520;-55
2024/04/22 08:05:39;;;;;;;2.17;1.70;;;8.20;81.60;;;;;;5269413;27;20347;-57
2024/04/22 08:08:07;;;;;;;2.53;1.37;;;7.80;83.20;;;;;;5268910;27;20232;-58
2024/04/22 08:10:33;;;;;;;1.20;1.10;;;7.00;80.20;;;;;;5269032;27;20712;-57
2024/04/22 08:12:58;;;;;;;1.50;1.20;;;6.80;84.90;;;;;;5267297;27;20467;-58
2024/04/22 08:15:25;;;;;;;1.40;1.30;;;7.80;85.90;;;;;;5264800;27;20226;-59
2024/04/22 08:17:50;;;;;;;1.63;1.47;;;7.90;80.50;;;;;;5268546;27;20688;-54
2024/04/22 08:20:16;;;;;;;1.73;1.40;;;7.70;81.20;;;;;;5272012;27;20532;-56
2024/04/22 08:22:42;;;;;;;2.07;1.70;;;7.90;78.50;;;;;;5268642;27;20730;-55
2024/04/22 08:25:08;;;;;;;2.13;1.93;;;7.60;79.40;;;;;;5253737;27;20230;-58
2024/04/22 08:27:33;;;;;;;1.40;1.30;;;7.80;78.60;;;;;;5267742;27;21083;-57
2024/04/22 08:29:59;;;;;;;2.37;2.00;;;7.90;78.80;;;;;;5271744;27;20282;-51
2024/04/22 08:32:25;;;;;;;1.30;1.20;;;7.90;76.70;;;;;;5268396;27;20278;-56
2024/04/22 08:34:50;;;;;;;1.73;1.63;;;7.70;79.90;;;;;;5268175;27;20319;-54
2024/04/22 08:37:16;;;;;;;2.13;1.80;;;8.10;79.00;;;;;;5263538;27;20459;-55
2024/04/22 08:39:43;;;;;;;2.27;1.60;;;7.70;81.60;;;;;;5268257;27;20406;-57
2024/04/22 08:42:13;;;;;;;1.67;1.40;;;8.30;77.90;;;;;;5258181;27;20529;-60
2024/04/22 08:44:40;;;;;;;3.00;1.63;;;8.20;75.40;;;;;;5259297;27;20478;-54
2024/04/22 08:47:06;;;;;;;2.03;1.60;;;8.50;74.70;;;;;;5267791;27;20782;-57
2024/04/22 08:49:32;;;;;;;2.00;1.67;;;8.20;75.30;;;;;;5239221;27;20472;-53
2024/04/22 08:51:58;;;;;;;3.33;1.40;;;8.10;78.60;;;;;;5269268;27;20529;-52
2024/04/22 08:54:25;;;;;;;2.40;2.00;;;7.70;88.50;;;;;;5268091;27;20281;-56
2024/04/22 08:56:53;;;;;;;2.10;1.90;;;7.60;92.70;;;;;;5268128;27;20983;-55
2024/04/22 08:59:19;;;;;;;3.23;1.70;;;7.40;94.10;;;;;;5245812;27;20995;-55
2024/04/22 09:01:45;;;;;;;2.10;1.90;;;7.70;94.40;;;;;;5267727;27;20467;-60
2024/04/22 09:04:10;;;;;;;1.70;1.60;;;8.30;93.60;;;;;;5267856;27;20235;-54
2024/04/22 09:06:36;;;;;;;1.80;1.50;;;7.80;91.40;;;;;;5267711;27;20278;-52
2024/04/22 09:09:07;;;;;;;1.70;1.60;;;8.00;93.20;;;;;;5260749;27;20632;-61
2024/04/22 09:11:33;;;;;;;2.70;1.77;;;8.00;92.90;;;;;;5265938;27;20240;-57
2024/04/22 09:14:00;;;;;;;1.67;1.57;;;8.10;91.50;;;;;;5267485;27;20765;-56
2024/04/22 09:16:26;;;;;;;2.80;1.70;;;7.60;88.10;;;;;;5257776;27;20527;-51
2024/04/22 09:18:51;;;;;;;2.10;1.93;;;7.40;88.00;;;;;;5265574;27;21025;-59
2024/04/22 09:21:17;;;;;;;2.13;1.47;;;7.60;87.80;;;;;;5265494;27;20270;-59
2024/04/22 09:23:43;;;;;;;1.63;1.53;;;7.50;83.90;;;;;;5262178;27;20239;-58
2024/04/22 09:26:10;;;;;;;1.63;1.40;;;6.80;88.50;;;;;;5266487;27;20237;-59
2024/04/22 09:28:36;;;;;;;2.03;1.40;;;6.80;90.40;;;;;;5274565;27;20308;-61
2024/04/22 09:31:04;;;;;;;2.50;1.30;;;6.60;90.70;;;;;;5248771;27;20832;-59
2024/04/22 09:33:33;;;;;;;3.83;2.10;;;6.70;91.10;;;;;;5272800;27;20608;-59
2024/04/22 09:36:01;;;;;;;2.20;2.00;;;6.30;91.20;;;;;;5266837;27;20468;-59
2024/04/22 09:38:29;;;;;;;1.90;1.70;;;6.50;92.80;;;;;;5273808;27;20854;-59
2024/04/22 09:40:56;;;;;;;1.83;1.70;;;6.80;93.70;;;;;;5264327;27;20590;-57
2024/04/22 09:43:22;;;;;;;1.50;1.40;;;6.50;94.40;;;;;;5273690;27;20901;-54
2024/04/22 09:45:51;;;;;;;2.07;1.57;;;6.60;94.60;;;;;;5273748;27;20472;-57
2024/04/22 09:48:17;;;;;;;1.70;1.50;;;7.00;94.20;;;;;;5273478;27;20423;-59
2024/04/22 09:50:45;;;;;;;2.90;1.60;;;6.50;93.10;;;;;;5278406;27;20569;-53
2024/04/22 09:53:12;;;;;;;2.10;1.90;;;6.40;93.50;;;;;;5263006;27;20819;-53
2024/04/22 09:55:39;;;;;;;1.70;1.60;;;6.90;94.20;;;;;;5274677;27;20524;-57
2024/04/22 09:58:09;;;;;;;1.67;1.50;;;7.20;92.20;;;;;;5269504;27;20530;-55
2024/04/22 10:00:35;;;;;;;2.13;1.93;;;7.50;90.70;;;;;;5272438;27;20480;-55
2024/04/22 10:03:00;;;;;;;5.90;1.70;;;7.30;91.30;;;;;;5271468;27;20980;-54
2024/04/22 10:05:27;;;;;;;1.83;1.57;;;7.50;91.30;;;;;;5269447;27;20347;-55
2024/04/22 10:07:52;;;;;;;1.53;1.43;;;7.70;90.00;;;;;;5265826;27;20321;-58
2024/04/22 10:10:18;;;;;;;1.63;1.47;;;7.80;88.60;;;;;;5271679;27;20532;-58
2024/04/22 10:12:44;;;;;;;2.30;2.10;;;7.90;90.50;;;;;;5254664;27;20228;-58
2024/04/22 10:15:14;;;;;;;1.73;1.50;;;7.90;85.90;;;;;;5268568;27;21055;-57
2024/04/22 10:17:43;;;;;;;4.63;4.23;;;7.40;90.00;;;;;;5278747;27;20250;-59
2024/04/22 10:20:10;;;;;;;1.93;1.47;;;7.20;91.30;;;;;;5272857;27;20459;-54
2024/04/22 10:22:37;;;;;;;4.10;1.97;;;7.30;92.80;;;;;;5272845;27;20615;-50
2024/04/22 10:25:05;;;;;;;4.17;2.33;;;7.30;93.30;;;;;;5269450;27;20483;-51
2024/04/22 10:27:33;;;;;;;2.80;2.17;;;7.20;94.90;;;;;;5269852;27;20574;-56
2024/04/22 10:29:59;;;;;;;4.73;2.17;;;6.70;97.90;;;;;;5278176;27;20460;-61
2024/04/22 10:32:25;;;;;;;5.07;2.90;;;6.40;99.90;;;;;;5278393;27;20525;-53
2024/04/22 10:34:51;;;;;;;2.40;2.20;;;6.20;99.90;;;;;;5270612;27;20284;-55
2024/04/22 10:37:16;;;;;;;4.27;2.47;;;6.20;99.90;;;;;;5269751;27;20456;-58
2024/04/22 10:39:43;;;;;;;3.27;3.07;;;6.20;99.90;;;;;;5267431;27;20252;-57
2024/04/22 10:42:10;;;;;;;3.07;2.30;;;6.60;99.90;;;;;;5268132;27;20286;-55
2024/04/22 10:44:37;;;;;;;2.97;2.77;;;6.80;99.90;;;;;;5268418;27;20541;-52
2024/04/22 10:47:04;;;;;;;2.80;2.60;;;6.90;99.90;;;;;;5265429;27;20468;-55
2024/04/22 10:49:30;;;;;;;3.67;2.80;;;6.80;99.90;;;;;;5264858;27;20484;-54
2024/04/22 10:51:55;;;;;;;2.50;1.70;;;6.60;99.90;;;;;;5267163;27;20582;-55
2024/04/22 10:54:21;;;;;;;2.30;2.10;;;6.70;99.90;;;;;;5268700;27;20520;-56
2024/04/22 10:56:47;;;;;;;2.00;1.90;;;6.90;99.90;;;;;;5268107;27;20274;-56
2024/04/22 10:59:13;;;;;;;3.00;2.00;;;7.20;99.90;;;;;;5262494;27;20226;-52
2024/04/22 11:01:41;;;;;;;3.03;1.90;;;7.70;99.90;;;;;;5268128;27;20352;-63
2024/04/22 11:04:07;;;;;;;3.63;2.47;;;7.80;99.90;;;;;;5268516;27;20232;-55
2024/04/22 11:06:35;;;;;;;2.30;2.10;;;7.60;99.90;;;;;;5268168;27;20997;-57
2024/04/22 11:09:01;;;;;;;2.80;2.17;;;7.50;99.90;;;;;;5266026;27;20948;-62
2024/04/22 11:11:27;;;;;;;6.70;2.63;;;7.10;99.90;;;;;;5264924;27;20470;-54
2024/04/22 11:13:52;;;;;;;2.60;2.13;;;6.90;99.90;;;;;;5271376;27;20518;-54
2024/04/22 11:16:20;;;;;;;1.80;1.70;;;6.60;99.90;;;;;;5267522;27;20712;-51
2024/04/22 11:18:47;;;;;;;1.90;1.80;;;6.90;99.90;;;;;;5258520;27;20487;-57
2024/04/22 11:21:13;;;;;;;2.97;2.30;;;6.70;99.90;;;;;;5268476;27;20517;-53
2024/04/22 11:23:39;;;;;;;2.80;2.17;;;7.10;99.90;;;;;;5258760;27;21025;-56
2024/04/22 11:26:05;;;;;;;2.50;2.03;;;7.40;99.90;;;;;;5253082;27;20539;-53
2024/04/22 11:28:31;;;;;;;3.90;1.93;;;7.30;99.90;;;;;;5270114;27;20284;-55
2024/04/22 11:30:57;;;;;;;2.33;1.77;;;7.60;99.90;;;;;;5265401;27;20471;-55
2024/04/22 11:33:23;;;;;;;2.27;1.90;;;8.00;99.90;;;;;;5255912;27;20524;-53
2024/04/22 11:35:53;;;;;;;2.23;2.10;;;8.40;99.60;;;;;;5272075;27;20225;-56
2024/04/22 11:38:20;;;;;;;2.53;1.90;;;8.20;96.50;;;;;;5271606;27;20467;-56
2024/04/22 11:40:47;;;;;;;2.00;1.80;;;8.20;96.70;;;;;;5271686;27;20620;-56
2024/04/22 11:43:13;;;;;;;1.70;1.60;;;8.50;96.40;;;;;;5271152;27;20534;-57
2024/04/22 11:45:39;;;;;;;2.63;1.90;;;8.60;96.10;;;;;;5267892;27;21026;-53
2024/04/22 11:48:05;;;;;;;1.73;1.23;;;8.40;96.60;;;;;;5270703;27;20298;-55
2024/04/22 11:50:30;;;;;;;2.50;2.10;;;9.30;96.00;;;;;;5269761;27;20472;-53
2024/04/22 11:52:56;;;;;;;1.57;1.37;;;9.00;96.00;;;;;;5261273;27;20465;-58
2024/04/22 11:55:22;;;;;;;1.97;1.80;;;8.80;94.10;;;;;;5274187;27;20746;-61
2024/04/22 11:57:47;;;;;;;2.10;1.90;;;9.10;93.30;;;;;;5274756;27;20229;-55
2024/04/22 12:00:13;;;;;;;1.73;1.47;;;9.40;93.20;;;;;;5240976;27;20228;-52
2024/04/22 12:02:39;;;;;;;5.30;2.83;;;9.40;90.10;;;;;;5273336;27;20231;-55
2024/04/22 12:05:09;;;;;;;2.37;1.80;;;8.90;94.00;;;;;;5238256;27;20319;-54
2024/04/22 12:07:37;;;;;;;1.73;1.63;;;8.50;92.50;;;;;;5272658;27;20471;-53
2024/04/22 12:10:04;;;;;;;2.43;1.70;;;7.70;96.00;;;;;;5272856;27;20477;-60
2024/04/22 12:12:30;;;;;;;2.23;1.90;;;7.70;96.40;;;;;;5273928;27;20480;-60
2024/04/22 12:14:56;;;;;;;1.87;1.70;;;7.60;96.40;;;;;;5274742;27;20827;-61
2024/04/22 12:17:23;;;;;;;1.70;1.50;;;7.20;96.00;;;;;;5273884;27;20476;-60
2024/04/22 12:19:50;;;;;;;1.50;1.27;;;7.50;96.60;;;;;;5259189;27;20269;-61
2024/04/22 12:22:16;;;;;;;1.90;1.67;;;7.40;96.70;;;;;;5273825;27;20959;-55
2024/04/22 12:24:43;;;;;;;1.60;1.50;;;7.60;96.20;;;;;;5270613;27;20485;-59
2024/04/22 12:27:09;;;;;;;1.67;1.57;;;7.60;96.90;;;;;;5273588;27;20566;-56
2024/04/22 12:29:34;;;;;;;3.10;2.17;;;7.10;98.60;;;;;;5272739;27;20554;-59
2024/04/22 12:32:01;;;;;;;3.97;1.67;;;7.30;99.90;;;;;;5273091;27;20720;-60
2024/04/22 12:34:26;;;;;;;3.20;2.10;;;7.60;98.90;;;;;;5272634;27;20784;-60
2024/04/22 12:36:52;;;;;;;2.97;2.00;;;7.40;98.40;;;;;;5274111;27;20579;-61
2024/04/22 12:39:17;;;;;;;3.90;1.80;;;7.50;98.00;;;;;;5273129;27;20226;-59
2024/04/22 12:41:43;;;;;;;1.93;1.80;;;7.60;98.20;;;;;;5270755;27;20681;-59
2024/04/22 12:44:09;;;;;;;1.80;1.60;;;7.60;94.70;;;;;;5243178;27;20318;-59
2024/04/22 12:50:42;;;;;;;3.73;2.13;;;7.70;94.10;;;;;;5272029;27;20467;-60
2024/04/22 12:52:11;;;;;;;5.20;2.50;;;7.60;95.60;;;;;;5272619;27;20517;-60
2024/04/22 12:54:37;;;;;;;3.20;1.73;;;7.40;95.80;;;;;;5272367;27;20549;-60
2024/04/22 12:57:02;;;;;;;2.40;2.20;;;7.60;95.80;;;;;;5271462;27;20481;-59
2024/04/22 12:59:28;;;;;;;1.70;1.60;;;7.80;94.60;;;;;;5272201;27;20271;-60
2024/04/22 13:01:54;;;;;;;4.30;2.00;;;7.70;94.40;;;;;;5270486;27;20261;-59